Time;durP1;ratioP1;P1;durP2;ratioP2;P2;SDS_P1;SDS_P2;PMS_P1;PMS_P2;Temp;Humidity;BMP_temperature;BMP_pressure;BME280_temperature;BME280_humidity;BME280_pressure;Samples;Min_cycle;Max_cycle;Signal;HPM_P1;HPM_P2
2024/03/18 00:01:55;;;;;;;4.77;3.20;;;10.60;99.90;;;;;;5054241;28;20412;-70
2024/03/18 00:04:21;;;;;;;7.83;4.47;;;10.50;99.90;;;;;;5052375;28;20171;-70
2024/03/18 00:06:48;;;;;;;5.57;3.83;;;10.40;99.90;;;;;;5049718;28;20429;-70
2024/03/18 00:09:14;;;;;;;6.83;5.00;;;10.40;99.90;;;;;;5054127;28;20936;-70
2024/03/18 00:11:39;;;;;;;5.37;4.20;;;10.40;99.90;;;;;;5054353;28;20478;-70
2024/03/18 00:14:05;;;;;;;4.60;3.90;;;10.40;99.90;;;;;;5054390;28;20163;-70
2024/03/18 00:16:31;;;;;;;6.30;4.17;;;10.40;99.90;;;;;;5051443;28;20199;-70
2024/03/18 00:18:56;;;;;;;5.10;4.30;;;10.40;99.90;;;;;;5053624;28;20591;-70
2024/03/18 00:21:22;;;;;;;5.03;4.23;;;10.40;99.90;;;;;;5054134;28;20174;-70
2024/03/18 00:23:47;;;;;;;5.90;5.30;;;10.40;99.90;;;;;;5054391;28;20163;-70
2024/03/18 00:26:13;;;;;;;7.87;6.20;;;10.40;99.90;;;;;;5050235;28;20664;-70
2024/03/18 00:28:38;;;;;;;6.10;4.80;;;10.40;99.90;;;;;;5053855;28;20198;-70
2024/03/18 00:31:04;;;;;;;8.53;5.67;;;10.30;99.90;;;;;;5055649;28;20171;-70
2024/03/18 00:33:30;;;;;;;6.00;5.47;;;10.40;99.90;;;;;;5053931;28;20174;-70
2024/03/18 00:35:57;;;;;;;7.13;6.23;;;10.40;99.90;;;;;;5048830;28;20199;-70
2024/03/18 00:38:23;;;;;;;8.70;6.80;;;10.40;99.90;;;;;;5053714;28;20658;-70
2024/03/18 00:41:44;;;;;;;6.63;5.03;;;10.40;99.90;;;;;;5052445;28;20433;-70
2024/03/18 00:43:36;;;;;;;7.03;5.33;;;10.50;99.90;;;;;;5053395;28;20677;-70
2024/03/18 00:46:02;;;;;;;11.13;6.70;;;10.40;99.90;;;;;;5051275;28;20417;-70
2024/03/18 00:48:28;;;;;;;6.47;4.17;;;10.30;99.90;;;;;;5053676;28;20610;-70
2024/03/18 00:50:53;;;;;;;6.60;4.57;;;10.30;99.90;;;;;;5053367;28;20565;-70
2024/03/18 00:53:19;;;;;;;9.20;5.67;;;10.30;99.90;;;;;;5053969;28;20179;-70
2024/03/18 00:55:44;;;;;;;7.73;5.20;;;10.40;99.90;;;;;;5048498;28;20203;-70
2024/03/18 00:58:10;;;;;;;5.50;4.53;;;10.40;99.90;;;;;;5053281;28;20183;-70
2024/03/18 01:00:35;;;;;;;6.97;5.10;;;10.40;99.90;;;;;;5053242;28;20566;-70
2024/03/18 01:03:03;;;;;;;13.10;6.30;;;10.50;99.90;;;;;;5052139;28;20171;-70
2024/03/18 01:05:29;;;;;;;6.97;5.60;;;10.40;99.90;;;;;;5050912;28;20175;-70
2024/03/18 01:07:55;;;;;;;9.10;5.23;;;10.40;99.90;;;;;;5052282;28;20437;-70
2024/03/18 01:10:21;;;;;;;7.80;5.80;;;10.40;99.90;;;;;;5051557;28;20448;-71
2024/03/18 01:12:46;;;;;;;6.57;5.50;;;10.40;99.90;;;;;;5052867;28;20911;-70
2024/03/18 01:15:12;;;;;;;7.73;6.10;;;10.40;99.90;;;;;;5050303;28;20214;-71
2024/03/18 01:17:38;;;;;;;5.83;5.13;;;10.40;99.90;;;;;;5050918;28;20171;-70
2024/03/18 01:20:09;;;;;;;7.63;5.83;;;10.40;99.90;;;;;;5052303;28;20661;-70
2024/03/18 01:22:34;;;;;;;6.83;6.10;;;10.40;99.90;;;;;;5052569;28;20202;-70
2024/03/18 01:25:01;;;;;;;7.33;6.00;;;10.40;99.90;;;;;;5051577;28;20486;-71
2024/03/18 01:27:28;;;;;;;6.80;6.10;;;10.30;99.90;;;;;;5050061;28;20262;-70
2024/03/18 01:29:55;;;;;;;7.83;5.80;;;10.30;99.90;;;;;;5052328;28;20417;-71
2024/03/18 01:32:22;;;;;;;6.87;6.00;;;10.30;99.90;;;;;;5051149;28;20417;-71
2024/03/18 01:34:48;;;;;;;6.53;5.30;;;10.30;99.90;;;;;;5052134;28;20445;-71
2024/03/18 01:37:14;;;;;;;7.17;5.40;;;10.30;99.90;;;;;;5049776;28;20416;-71
2024/03/18 01:39:40;;;;;;;9.60;6.37;;;10.30;99.90;;;;;;5052402;28;20426;-70
2024/03/18 01:42:06;;;;;;;7.53;6.40;;;10.30;99.90;;;;;;5052031;28;20167;-70
2024/03/18 01:44:31;;;;;;;8.10;6.10;;;10.30;99.90;;;;;;5052226;28;20513;-71
2024/03/18 01:46:57;;;;;;;11.47;7.50;;;10.20;99.90;;;;;;5048164;28;20212;-71
2024/03/18 01:49:23;;;;;;;7.97;7.00;;;10.30;99.90;;;;;;5052038;28;20237;-71
2024/03/18 01:51:49;;;;;;;9.90;7.10;;;10.30;99.90;;;;;;5051949;28;20178;-71
2024/03/18 01:54:16;;;;;;;13.43;8.17;;;10.30;99.90;;;;;;5052145;28;20167;-70
2024/03/18 01:56:43;;;;;;;10.40;7.63;;;10.30;99.90;;;;;;5046761;28;20976;-71
2024/03/18 01:59:10;;;;;;;12.57;7.20;;;10.30;99.90;;;;;;5051842;28;20847;-71
2024/03/18 02:01:36;;;;;;;13.00;6.80;;;10.30;99.90;;;;;;5051884;28;20441;-71
2024/03/18 02:04:09;;;;;;;17.90;8.40;;;10.30;99.90;;;;;;5051929;28;20414;-70
2024/03/18 02:06:36;;;;;;;11.17;7.43;;;10.30;99.90;;;;;;5049288;28;20424;-71
2024/03/18 02:09:03;;;;;;;10.47;8.07;;;10.30;99.90;;;;;;5051410;28;20433;-71
2024/03/18 02:11:28;;;;;;;11.10;7.67;;;10.30;99.90;;;;;;5051652;28;20416;-71
2024/03/18 02:13:54;;;;;;;16.00;8.90;;;10.30;99.90;;;;;;5051827;28;20484;-71
2024/03/18 02:16:20;;;;;;;15.33;10.10;;;10.20;99.90;;;;;;5049339;28;20218;-71
2024/03/18 02:18:46;;;;;;;16.53;9.60;;;10.20;99.90;;;;;;5050770;28;20461;-71
2024/03/18 02:21:11;;;;;;;14.20;9.87;;;10.20;99.90;;;;;;5051782;28;20405;-71
2024/03/18 02:23:37;;;;;;;11.07;7.87;;;10.30;99.90;;;;;;5052219;28;20622;-70
2024/03/18 02:26:02;;;;;;;13.50;9.67;;;10.30;99.90;;;;;;5046421;28;20606;-71
2024/03/18 02:28:28;;;;;;;13.07;10.03;;;10.30;99.90;;;;;;5050426;28;20237;-70
2024/03/18 02:30:54;;;;;;;16.77;9.47;;;10.30;99.90;;;;;;5051638;28;20175;-71
2024/03/18 02:33:19;;;;;;;15.20;9.47;;;10.40;99.90;;;;;;5051822;28;20167;-71
2024/03/18 02:35:45;;;;;;;19.27;9.77;;;10.30;99.90;;;;;;5048612;28;20221;-71
2024/03/18 02:38:10;;;;;;;14.37;9.27;;;10.40;99.90;;;;;;5050085;28;20279;-70
2024/03/18 02:40:36;;;;;;;15.17;10.80;;;10.30;99.90;;;;;;5051482;28;20282;-71
2024/03/18 02:43:01;;;;;;;16.53;11.20;;;10.30;99.90;;;;;;5051690;28;20308;-71
2024/03/18 02:45:27;;;;;;;17.07;10.93;;;10.30;99.90;;;;;;5049459;28;20656;-71
2024/03/18 02:47:52;;;;;;;17.00;11.50;;;10.30;99.90;;;;;;5050488;28;20209;-70
2024/03/18 02:50:18;;;;;;;15.20;10.90;;;10.30;99.90;;;;;;5051494;28;20166;-71
2024/03/18 02:52:45;;;;;;;18.83;11.47;;;10.30;99.90;;;;;;5050005;28;20209;-71
2024/03/18 02:55:11;;;;;;;16.33;10.03;;;10.30;99.90;;;;;;5050227;28;20492;-71
2024/03/18 02:57:36;;;;;;;13.37;10.30;;;10.30;99.90;;;;;;5048962;28;20441;-71
2024/03/18 03:00:06;;;;;;;23.20;11.40;;;10.30;99.90;;;;;;5051373;28;20163;-70
2024/03/18 03:02:32;;;;;;;23.77;10.90;;;10.40;99.90;;;;;;5051547;28;20595;-70
2024/03/18 03:05:01;;;;;;;20.67;10.40;;;10.40;99.90;;;;;;5050353;28;20511;-71
2024/03/18 03:07:26;;;;;;;20.53;12.27;;;10.40;99.90;;;;;;5047845;28;20951;-71
2024/03/18 03:09:52;;;;;;;16.97;11.00;;;10.50;99.90;;;;;;5051111;28;20447;-71
2024/03/18 03:12:18;;;;;;;17.63;11.03;;;10.50;99.90;;;;;;5051319;28;20630;-70
2024/03/18 03:14:44;;;;;;;19.60;12.23;;;10.40;99.90;;;;;;5051033;28;20166;-71
2024/03/18 03:17:10;;;;;;;15.90;11.20;;;10.30;99.90;;;;;;5047946;28;20175;-70
2024/03/18 03:19:35;;;;;;;21.20;13.00;;;10.30;99.90;;;;;;5051071;28;20464;-71
2024/03/18 03:22:02;;;;;;;17.33;11.30;;;10.30;99.90;;;;;;5051243;28;20904;-71
2024/03/18 03:24:27;;;;;;;19.00;11.10;;;10.30;99.90;;;;;;5051149;28;20163;-70
2024/03/18 03:26:53;;;;;;;19.00;11.27;;;10.30;99.90;;;;;;5046529;28;20970;-71
2024/03/18 03:29:18;;;;;;;17.50;11.07;;;10.40;99.90;;;;;;5051013;28;20194;-70
2024/03/18 03:31:44;;;;;;;20.47;12.60;;;10.40;99.90;;;;;;5054490;28;20591;-71
2024/03/18 03:34:09;;;;;;;17.43;11.73;;;10.30;99.90;;;;;;5054838;28;20250;-71
2024/03/18 03:36:39;;;;;;;16.57;11.70;;;10.30;99.90;;;;;;5052297;28;20202;-70
2024/03/18 03:39:05;;;;;;;22.60;10.50;;;10.30;99.90;;;;;;5053007;28;20191;-71
2024/03/18 03:41:30;;;;;;;23.73;13.93;;;10.30;99.90;;;;;;5054560;28;20758;-71
2024/03/18 03:43:56;;;;;;;18.37;13.40;;;10.30;99.90;;;;;;5056364;28;20400;-71
2024/03/18 03:46:21;;;;;;;22.80;11.30;;;10.30;99.90;;;;;;5051674;28;20179;-71
2024/03/18 03:48:47;;;;;;;19.60;10.93;;;10.30;99.90;;;;;;5052925;28;20222;-71
2024/03/18 03:51:13;;;;;;;15.50;11.50;;;10.40;99.90;;;;;;5054194;28;20199;-71
2024/03/18 03:53:39;;;;;;;20.37;12.10;;;10.30;99.90;;;;;;5053042;28;20183;-71
2024/03/18 03:56:04;;;;;;;20.93;10.73;;;10.20;99.90;;;;;;5049779;28;20217;-71
2024/03/18 03:58:32;;;;;;;17.57;9.57;;;10.10;99.90;;;;;;5053934;28;20479;-71
2024/03/18 04:00:58;;;;;;;19.53;13.07;;;10.20;99.90;;;;;;5054103;28;20194;-71
2024/03/18 04:03:24;;;;;;;17.00;11.00;;;10.20;99.90;;;;;;5054101;28;20402;-71
2024/03/18 04:05:54;;;;;;;23.00;11.67;;;10.20;99.90;;;;;;5053815;28;20179;-71
2024/03/18 04:08:22;;;;;;;21.23;12.83;;;10.20;99.90;;;;;;5049704;28;20851;-71
2024/03/18 04:10:48;;;;;;;20.37;10.90;;;10.20;99.90;;;;;;5053884;28;20475;-71
2024/03/18 04:13:15;;;;;;;22.90;13.20;;;10.20;99.90;;;;;;5053697;28;20460;-71
2024/03/18 04:15:42;;;;;;;18.40;11.47;;;10.20;99.90;;;;;;5053794;28;20976;-71
2024/03/18 04:18:08;;;;;;;18.13;10.63;;;10.30;99.90;;;;;;5049430;28;20437;-71
2024/03/18 04:20:34;;;;;;;18.87;12.30;;;10.40;99.90;;;;;;5053603;28;20443;-71
2024/03/18 04:23:00;;;;;;;20.90;10.50;;;10.30;99.90;;;;;;5053707;28;20534;-71
2024/03/18 04:25:26;;;;;;;18.63;10.63;;;10.30;99.90;;;;;;5053486;28;20401;-71
2024/03/18 04:27:52;;;;;;;15.73;10.60;;;10.30;99.90;;;;;;5048083;28;20471;-71
2024/03/18 04:30:19;;;;;;;13.20;10.73;;;10.40;99.90;;;;;;5053866;28;20316;-71
2024/03/18 04:32:45;;;;;;;17.63;11.43;;;10.20;99.90;;;;;;5053579;28;20201;-71
2024/03/18 04:35:11;;;;;;;17.97;10.63;;;10.20;99.90;;;;;;5053170;28;20488;-71
2024/03/18 04:37:45;;;;;;;21.27;11.40;;;10.20;99.90;;;;;;5051144;28;20425;-71
2024/03/18 04:40:12;;;;;;;18.57;10.53;;;10.20;99.90;;;;;;5052552;28;20514;-71
2024/03/18 04:42:39;;;;;;;15.33;10.17;;;10.10;99.90;;;;;;5052484;28;20436;-71
2024/03/18 04:45:05;;;;;;;13.20;10.40;;;10.00;99.90;;;;;;5053149;28;20400;-71
2024/03/18 04:47:31;;;;;;;12.30;9.67;;;10.00;99.90;;;;;;5050213;28;20784;-71
2024/03/18 04:49:57;;;;;;;15.50;9.90;;;10.10;99.90;;;;;;5050996;28;20414;-71
2024/03/18 04:52:22;;;;;;;12.07;9.10;;;10.10;99.90;;;;;;5052979;28;20427;-71
2024/03/18 04:54:48;;;;;;;17.63;9.73;;;10.10;99.90;;;;;;5052823;28;20209;-71
2024/03/18 04:57:13;;;;;;;18.90;12.23;;;10.20;99.90;;;;;;5048906;28;20656;-71
2024/03/18 04:59:39;;;;;;;14.67;10.33;;;10.30;99.90;;;;;;5052918;28;20191;-71
2024/03/18 05:02:05;;;;;;;18.60;11.67;;;10.30;99.90;;;;;;5052943;28;20167;-71
2024/03/18 05:04:33;;;;;;;21.40;10.67;;;10.30;99.90;;;;;;5053011;28;20401;-71
2024/03/18 05:06:59;;;;;;;15.30;11.10;;;10.20;99.90;;;;;;5049178;28;20201;-70
2024/03/18 05:09:25;;;;;;;16.00;10.07;;;10.20;99.90;;;;;;5052704;28;20465;-71
2024/03/18 05:11:51;;;;;;;18.30;9.77;;;10.20;99.90;;;;;;5052806;28;20636;-71
2024/03/18 05:14:16;;;;;;;14.53;10.07;;;10.10;99.90;;;;;;5052801;28;20488;-71
2024/03/18 05:16:42;;;;;;;23.07;13.07;;;10.00;99.90;;;;;;5048833;28;20202;-71
2024/03/18 05:19:07;;;;;;;18.00;9.30;;;9.90;99.90;;;;;;5050214;28;20205;-71
2024/03/18 05:21:33;;;;;;;17.90;10.83;;;9.80;99.90;;;;;;5040241;28;20178;-71
2024/03/18 05:23:58;;;;;;;11.57;8.60;;;9.80;99.90;;;;;;5049411;28;20218;-70
2024/03/18 05:26:24;;;;;;;15.60;10.00;;;9.80;99.90;;;;;;5050353;28;20170;-71
2024/03/18 05:28:49;;;;;;;15.73;10.47;;;9.70;99.90;;;;;;5063728;28;20208;-71
2024/03/18 05:31:15;;;;;;;18.27;11.10;;;9.70;99.90;;;;;;5052974;28;20179;-71
2024/03/18 05:33:40;;;;;;;16.67;10.83;;;9.70;99.90;;;;;;5055689;28;20189;-71
2024/03/18 05:36:06;;;;;;;16.93;10.30;;;9.70;99.90;;;;;;5044158;28;20206;-70
2024/03/18 05:38:32;;;;;;;16.10;11.10;;;9.60;99.90;;;;;;5053642;28;20669;-70
2024/03/18 05:40:57;;;;;;;15.90;11.70;;;9.60;99.90;;;;;;5052483;28;20181;-71
2024/03/18 05:43:24;;;;;;;14.93;11.23;;;9.70;99.90;;;;;;5046069;28;20562;-70
2024/03/18 05:45:49;;;;;;;16.20;9.50;;;9.60;99.90;;;;;;5048637;28;20174;-71
2024/03/18 05:48:15;;;;;;;22.10;12.63;;;9.60;99.90;;;;;;5043952;28;20494;-71
2024/03/18 05:50:40;;;;;;;21.10;13.20;;;9.70;99.90;;;;;;5052095;28;20229;-71
2024/03/18 05:53:07;;;;;;;18.97;10.97;;;9.80;99.90;;;;;;5051994;28;20210;-71
2024/03/18 05:55:32;;;;;;;24.10;14.27;;;9.90;99.90;;;;;;5047695;28;20678;-71
2024/03/18 05:58:02;;;;;;;16.37;11.73;;;10.00;99.90;;;;;;5043288;28;20491;-71
2024/03/18 06:00:31;;;;;;;15.60;10.83;;;10.10;99.90;;;;;;5050581;28;20163;-71
2024/03/18 06:02:56;;;;;;;20.47;11.43;;;10.10;99.90;;;;;;5051735;28;20417;-71
2024/03/18 06:05:22;;;;;;;20.53;13.53;;;10.20;99.90;;;;;;5051713;28;20520;-71
2024/03/18 06:07:47;;;;;;;15.50;10.80;;;10.10;99.90;;;;;;5051812;28;20226;-71
2024/03/18 06:10:14;;;;;;;21.93;12.37;;;10.10;99.90;;;;;;5051551;28;20167;-71
2024/03/18 06:12:40;;;;;;;16.50;10.50;;;10.20;99.90;;;;;;5051838;28;20646;-71
2024/03/18 06:15:07;;;;;;;22.50;12.63;;;10.30;99.90;;;;;;5051421;28;20449;-72
2024/03/18 06:17:32;;;;;;;17.47;11.43;;;10.30;99.90;;;;;;5050471;28;20924;-72
2024/03/18 06:19:58;;;;;;;17.63;12.07;;;10.40;99.90;;;;;;5051698;28;20482;-72
2024/03/18 06:22:26;;;;;;;15.73;11.47;;;10.40;99.90;;;;;;5050244;28;20635;-72
2024/03/18 06:27:37;;;;;;;21.97;11.93;;;10.40;99.90;;;;;;5051665;28;20405;-72
2024/03/18 06:30:04;;;;;;;19.47;12.67;;;10.50;99.90;;;;;;5051779;28;20401;-72
2024/03/18 06:32:29;;;;;;;25.30;12.47;;;10.50;99.90;;;;;;5051662;28;20417;-72
2024/03/18 06:34:55;;;;;;;24.40;13.03;;;10.50;99.90;;;;;;5051592;28;20664;-71
2024/03/18 06:37:20;;;;;;;26.67;13.30;;;10.60;99.90;;;;;;5050488;28;20171;-71
2024/03/18 06:39:46;;;;;;;16.03;10.80;;;10.60;99.90;;;;;;5051622;28;20183;-72
2024/03/18 06:42:11;;;;;;;19.77;11.37;;;10.80;99.90;;;;;;5048484;28;20175;-72
2024/03/18 06:44:42;;;;;;;17.87;12.70;;;10.90;99.90;;;;;;5049983;28;20181;-72
2024/03/18 06:47:08;;;;;;;17.37;11.37;;;10.90;99.90;;;;;;5051813;28;20198;-72
2024/03/18 06:49:36;;;;;;;17.67;11.93;;;10.90;99.90;;;;;;5051365;28;20936;-72
2024/03/18 06:52:02;;;;;;;18.30;11.27;;;10.90;99.90;;;;;;5051288;28;20528;-72
2024/03/18 06:54:28;;;;;;;14.30;10.50;;;11.00;99.90;;;;;;5051351;28;20508;-72
2024/03/18 06:56:53;;;;;;;23.03;12.83;;;11.20;99.90;;;;;;5048162;28;20206;-71
2024/03/18 06:59:19;;;;;;;18.37;11.57;;;11.40;99.90;;;;;;5049814;28;20183;-72
2024/03/18 07:01:44;;;;;;;21.47;12.80;;;11.60;99.90;;;;;;5051281;28;20177;-72
2024/03/18 07:04:10;;;;;;;18.17;13.00;;;11.90;99.90;;;;;;5051269;28;20175;-72
2024/03/18 07:06:35;;;;;;;16.83;13.20;;;12.10;99.90;;;;;;5047730;28;20240;-72
2024/03/18 07:09:01;;;;;;;18.70;12.47;;;12.40;99.90;;;;;;5054988;28;20194;-72
2024/03/18 07:11:27;;;;;;;18.03;11.13;;;12.70;99.90;;;;;;5054891;28;20179;-72
2024/03/18 07:13:53;;;;;;;16.73;12.03;;;13.10;99.90;;;;;;5055017;28;20908;-72
2024/03/18 07:16:19;;;;;;;22.33;12.27;;;13.40;99.90;;;;;;5054634;28;20232;-72
2024/03/18 07:18:44;;;;;;;16.90;13.07;;;13.70;99.90;;;;;;5054853;28;20217;-72
2024/03/18 07:21:11;;;;;;;22.40;15.00;;;13.80;99.90;;;;;;5055492;28;20177;-72
2024/03/18 07:23:37;;;;;;;19.77;13.40;;;14.00;99.90;;;;;;5055014;28;20238;-72
2024/03/18 07:26:04;;;;;;;19.87;13.13;;;14.20;99.90;;;;;;5055145;28;20429;-72
2024/03/18 07:28:33;;;;;;;17.47;13.20;;;14.50;99.90;;;;;;5054844;28;20421;-72
2024/03/18 07:30:59;;;;;;;16.57;11.57;;;14.80;99.90;;;;;;5054864;28;20423;-72
2024/03/18 07:33:25;;;;;;;19.80;13.63;;;15.20;99.90;;;;;;5054846;28;20401;-72
2024/03/18 07:35:51;;;;;;;18.40;11.87;;;15.40;99.90;;;;;;5053198;28;20452;-72
2024/03/18 07:38:17;;;;;;;13.73;11.17;;;15.30;99.90;;;;;;5054654;28;20205;-72
2024/03/18 07:40:42;;;;;;;14.37;10.97;;;15.20;99.90;;;;;;5052326;28;20425;-72
2024/03/18 07:43:11;;;;;;;14.43;11.83;;;14.90;99.90;;;;;;5035291;28;20670;-72
2024/03/18 07:45:38;;;;;;;15.67;10.50;;;14.60;99.90;;;;;;5053361;28;20250;-72
2024/03/18 07:48:05;;;;;;;14.77;10.43;;;14.40;99.90;;;;;;5054693;28;20499;-72
2024/03/18 07:50:35;;;;;;;13.57;10.80;;;14.30;99.90;;;;;;5053580;28;20466;-72
2024/03/18 07:53:04;;;;;;;14.43;10.60;;;14.10;99.90;;;;;;5039686;28;20813;-72
2024/03/18 07:55:30;;;;;;;13.17;10.00;;;14.00;99.90;;;;;;5052856;28;20495;-72
2024/03/18 07:57:56;;;;;;;14.27;10.70;;;14.00;99.90;;;;;;5039948;28;20449;-72
2024/03/18 08:00:21;;;;;;;12.80;8.80;;;14.20;99.90;;;;;;5045238;28;20409;-72
2024/03/18 08:02:47;;;;;;;11.23;9.30;;;14.10;99.90;;;;;;5048881;28;20174;-72
2024/03/18 08:05:12;;;;;;;19.13;10.30;;;14.20;99.90;;;;;;5053699;28;20548;-72
2024/03/18 08:07:38;;;;;;;14.17;10.13;;;14.10;99.90;;;;;;5054050;28;20179;-72
2024/03/18 08:10:04;;;;;;;11.87;8.67;;;14.10;99.90;;;;;;5054091;28;20587;-71
2024/03/18 08:12:30;;;;;;;13.03;9.00;;;14.20;99.90;;;;;;5054071;28;20421;-69
2024/03/18 08:14:55;;;;;;;12.37;9.23;;;14.50;99.90;;;;;;5053773;28;20453;-69
2024/03/18 08:17:21;;;;;;;9.83;7.93;;;14.70;99.90;;;;;;5052603;28;20800;-69
2024/03/18 08:19:47;;;;;;;12.43;7.40;;;15.00;99.90;;;;;;5053790;28;20658;-70
2024/03/18 08:22:16;;;;;;;11.13;7.57;;;15.30;99.90;;;;;;5053813;28;20171;-71
2024/03/18 08:24:42;;;;;;;12.30;8.67;;;15.70;99.90;;;;;;5053514;28;20634;-69
2024/03/18 08:27:11;;;;;;;8.47;7.53;;;16.10;99.90;;;;;;5047832;28;20421;-71
2024/03/18 08:29:37;;;;;;;9.83;7.80;;;16.60;99.90;;;;;;5051071;28;20445;-70
2024/03/18 08:32:03;;;;;;;8.67;7.50;;;17.00;99.90;;;;;;5052493;28;20962;-69
2024/03/18 08:34:28;;;;;;;11.90;7.70;;;17.40;99.90;;;;;;5054084;28;20217;-70
2024/03/18 08:36:54;;;;;;;9.50;8.30;;;17.80;99.90;;;;;;5051913;28;20491;-69
2024/03/18 08:39:19;;;;;;;7.47;6.70;;;18.20;99.90;;;;;;5053141;28;20202;-70
2024/03/18 08:41:45;;;;;;;10.63;7.30;;;18.90;99.90;;;;;;5052931;28;20179;-70
2024/03/18 08:44:11;;;;;;;11.50;7.10;;;19.80;99.90;;;;;;5041870;28;20190;-68
2024/03/18 08:46:36;;;;;;;8.20;6.07;;;20.70;99.90;;;;;;5051754;28;20171;-69
2024/03/18 08:49:02;;;;;;;6.60;5.90;;;20.90;99.90;;;;;;5053248;28;20225;-68
2024/03/18 08:51:28;;;;;;;6.77;5.73;;;21.30;99.90;;;;;;5048500;28;20237;-70
2024/03/18 08:53:53;;;;;;;6.20;5.00;;;21.70;99.90;;;;;;5050855;28;20187;-70
2024/03/18 08:56:19;;;;;;;6.77;5.47;;;22.50;99.90;;;;;;5047143;28;20259;-69
2024/03/18 08:58:45;;;;;;;6.57;4.97;;;23.50;99.90;;;;;;5046700;28;20195;-70
2024/03/18 09:01:11;;;;;;;8.07;5.40;;;24.30;99.90;;;;;;5052771;28;20175;-69
2024/03/18 09:03:37;;;;;;;6.20;5.13;;;25.20;99.90;;;;;;5053532;28;20171;-69
2024/03/18 09:06:03;;;;;;;6.70;4.97;;;26.30;99.90;;;;;;5045143;28;20510;-68
2024/03/18 09:08:29;;;;;;;7.50;4.53;;;27.50;99.90;;;;;;5045022;28;20429;-72
2024/03/18 09:10:54;;;;;;;8.10;5.10;;;28.50;86.90;;;;;;5051660;28;20858;-69
2024/03/18 09:13:20;;;;;;;4.07;3.37;;;29.30;77.80;;;;;;5052869;28;20175;-69
2024/03/18 09:15:45;;;;;;;3.47;2.67;;;29.80;59.80;;;;;;5052786;28;20206;-69
2024/03/18 09:18:11;;;;;;;2.93;2.20;;;29.20;51.00;;;;;;5053017;28;20190;-70
2024/03/18 09:20:39;;;;;;;4.10;2.90;;;28.90;51.00;;;;;;5052961;28;20313;-69
2024/03/18 09:23:07;;;;;;;4.10;2.30;;;28.80;51.80;;;;;;5053094;28;20193;-69
2024/03/18 09:25:33;;;;;;;5.10;3.13;;;29.00;49.90;;;;;;5052826;28;20406;-69
2024/03/18 09:27:58;;;;;;;6.07;2.97;;;29.60;49.50;;;;;;5052667;28;20504;-69
2024/03/18 09:30:24;;;;;;;4.30;2.30;;;29.90;47.40;;;;;;5052967;28;20928;-69
2024/03/18 09:32:50;;;;;;;2.40;2.20;;;31.00;48.10;;;;;;5052963;28;20174;-69
2024/03/18 09:35:15;;;;;;;2.40;2.20;;;32.40;46.60;;;;;;5052566;28;20665;-70
2024/03/18 09:37:41;;;;;;;3.50;2.67;;;34.00;44.40;;;;;;5052806;28;20171;-70
2024/03/18 09:40:07;;;;;;;4.50;3.03;;;34.90;40.90;;;;;;5052546;28;20163;-69
2024/03/18 09:42:34;;;;;;;2.50;2.20;;;34.80;37.20;;;;;;5052436;28;20189;-70
2024/03/18 09:45:01;;;;;;;4.77;1.93;;;34.50;37.40;;;;;;5043796;28;20434;-70
2024/03/18 09:47:27;;;;;;;3.30;2.30;;;33.80;37.20;;;;;;5036717;28;20425;-70
2024/03/18 09:49:53;;;;;;;2.63;2.27;;;32.80;37.20;;;;;;5050927;28;20417;-69
2024/03/18 09:52:21;;;;;;;2.33;2.13;;;31.60;37.50;;;;;;5051918;28;20191;-70
2024/03/18 09:54:49;;;;;;;2.80;2.47;;;30.40;38.10;;;;;;5049312;28;20433;-69
2024/03/18 09:57:17;;;;;;;2.57;2.37;;;29.10;39.10;;;;;;5049638;28;20413;-69
2024/03/18 09:59:43;;;;;;;6.00;2.87;;;28.20;40.90;;;;;;5051977;28;20967;-69
2024/03/18 10:02:14;;;;;;;2.17;1.97;;;27.50;42.50;;;;;;5045219;28;20426;-69
2024/03/18 10:04:40;;;;;;;4.83;2.50;;;26.90;44.00;;;;;;5051752;28;20778;-70
2024/03/18 10:07:14;;;;;;;2.20;1.83;;;26.80;45.20;;;;;;5051958;28;20407;-70
2024/03/18 10:09:43;;;;;;;2.43;1.80;;;26.70;45.50;;;;;;5049940;28;20237;-71
2024/03/18 10:12:13;;;;;;;3.30;2.20;;;26.30;45.20;;;;;;5051838;28;20847;-69
2024/03/18 10:14:40;;;;;;;5.33;2.10;;;25.90;45.30;;;;;;5051143;28;20415;-67
2024/03/18 10:17:11;;;;;;;6.20;2.23;;;25.40;45.70;;;;;;5051824;28;20414;-67
2024/03/18 10:19:37;;;;;;;4.13;2.53;;;24.90;46.30;;;;;;5051709;28;20194;-68
2024/03/18 10:22:04;;;;;;;5.13;2.30;;;24.90;48.30;;;;;;5051767;28;20934;-68
2024/03/18 10:24:30;;;;;;;2.60;1.60;;;25.80;48.70;;;;;;5051932;28;20170;-67
2024/03/18 10:26:55;;;;;;;4.33;2.00;;;27.20;48.30;;;;;;5051637;28;20405;-68
2024/03/18 10:29:20;;;;;;;2.53;1.87;;;29.90;47.90;;;;;;5051682;28;20614;-68
2024/03/18 10:31:47;;;;;;;3.53;2.17;;;32.10;43.30;;;;;;5051802;28;20528;-68
2024/03/18 10:34:22;;;;;;;2.60;2.17;;;31.90;38.90;;;;;;5051759;28;20559;-68
2024/03/18 10:36:54;;;;;;;2.60;1.90;;;30.80;38.10;;;;;;5051516;28;20475;-67
2024/03/18 10:39:44;;;;;;;5.37;1.87;;;29.40;38.90;;;;;;5051678;28;20421;-69
2024/03/18 10:42:16;;;;;;;2.27;2.07;;;28.10;40.10;;;;;;5055838;28;20404;-69
2024/03/18 10:44:46;;;;;;;2.23;1.93;;;26.80;41.70;;;;;;5051191;28;20421;-69
2024/03/18 10:47:12;;;;;;;4.50;1.70;;;25.90;43.20;;;;;;5041324;28;20466;-69
2024/03/18 10:49:38;;;;;;;3.40;1.93;;;25.20;44.60;;;;;;5054397;28;20424;-69
2024/03/18 10:52:04;;;;;;;1.80;1.40;;;24.70;45.80;;;;;;5055290;28;20611;-69
2024/03/18 10:54:30;;;;;;;1.70;1.60;;;24.50;47.20;;;;;;5055126;28;20453;-69
2024/03/18 10:56:56;;;;;;;2.10;1.60;;;24.50;48.10;;;;;;5047066;28;20461;-68
2024/03/18 10:59:22;;;;;;;3.50;1.50;;;24.70;49.00;;;;;;5049930;28;20673;-69
2024/03/18 11:01:48;;;;;;;2.70;1.33;;;25.40;50.20;;;;;;5054207;28;20193;-68
2024/03/18 11:04:22;;;;;;;3.10;1.70;;;28.20;49.30;;;;;;5053178;28;20417;-69
2024/03/18 11:06:52;;;;;;;4.23;2.10;;;32.40;45.80;;;;;;5046734;28;20262;-70
2024/03/18 11:09:19;;;;;;;1.40;1.20;;;36.00;38.50;;;;;;5049170;28;20425;-69
2024/03/18 11:11:45;;;;;;;3.30;1.97;;;37.90;35.70;;;;;;5055051;28;20707;-69
2024/03/18 11:14:14;;;;;;;2.00;1.40;;;38.70;32.90;;;;;;5057482;28;21042;-69
2024/03/18 11:16:43;;;;;;;3.47;1.90;;;38.70;31.10;;;;;;5053728;28;20548;-70
2024/03/18 11:19:16;;;;;;;2.37;1.73;;;37.40;29.70;;;;;;5050739;28;21008;-69
2024/03/18 11:21:42;;;;;;;6.17;2.53;;;35.80;30.00;;;;;;5045740;28;20398;-69
2024/03/18 11:24:08;;;;;;;3.10;2.47;;;34.20;30.50;;;;;;5054563;28;20464;-69
2024/03/18 11:26:40;;;;;;;2.87;2.67;;;32.70;32.50;;;;;;5053776;28;20163;-68
2024/03/18 11:29:10;;;;;;;3.70;2.20;;;31.30;33.20;;;;;;5049170;28;20473;-68
2024/03/18 11:31:37;;;;;;;3.17;2.20;;;30.10;34.90;;;;;;5053020;28;20459;-68
2024/03/18 11:34:10;;;;;;;4.40;2.30;;;30.40;37.00;;;;;;5057034;28;20404;-68
2024/03/18 11:36:39;;;;;;;2.30;1.90;;;31.40;37.90;;;;;;5054313;28;20480;-68
2024/03/18 11:39:07;;;;;;;3.07;2.67;;;33.40;36.60;;;;;;5054364;28;20420;-69
2024/03/18 11:41:35;;;;;;;2.80;2.20;;;36.30;36.10;;;;;;5054102;28;20477;-68
2024/03/18 11:44:00;;;;;;;2.70;2.40;;;37.90;33.00;;;;;;5053508;28;20409;-69
2024/03/18 11:46:27;;;;;;;3.07;2.77;;;37.20;30.90;;;;;;5049123;28;20421;-69
2024/03/18 11:49:02;;;;;;;3.70;2.80;;;36.00;30.60;;;;;;5053845;28;20298;-68
2024/03/18 11:51:28;;;;;;;6.23;2.63;;;36.20;30.70;;;;;;5053712;28;20457;-68
2024/03/18 11:53:53;;;;;;;2.60;2.40;;;37.10;31.10;;;;;;5054864;28;20506;-68
2024/03/18 11:56:19;;;;;;;3.73;3.23;;;38.80;30.00;;;;;;5073450;28;20216;-69
2024/03/18 11:58:44;;;;;;;3.27;2.17;;;39.50;27.90;;;;;;5074376;28;20814;-68
2024/03/18 12:01:11;;;;;;;2.70;1.80;;;41.10;28.20;;;;;;5074299;28;20176;-69
2024/03/18 12:03:36;;;;;;;2.63;2.27;;;42.40;28.30;;;;;;5074267;28;20155;-68
2024/03/18 12:06:02;;;;;;;3.30;2.37;;;43.30;26.80;;;;;;5074093;28;20405;-69
2024/03/18 12:08:28;;;;;;;2.77;2.30;;;42.40;25.60;;;;;;5074205;28;20192;-69
2024/03/18 12:10:55;;;;;;;2.23;2.03;;;40.40;25.30;;;;;;5074238;28;20275;-68
2024/03/18 12:13:23;;;;;;;2.30;1.70;;;38.20;26.10;;;;;;5074157;28;20163;-68
2024/03/18 12:15:50;;;;;;;2.40;2.20;;;36.30;27.40;;;;;;5073794;28;20456;-68
2024/03/18 12:18:15;;;;;;;2.67;1.90;;;34.80;28.90;;;;;;5073992;28;20460;-68
2024/03/18 12:20:41;;;;;;;2.23;2.03;;;34.20;29.60;;;;;;5074214;28;20421;-68
2024/03/18 12:23:16;;;;;;;5.87;2.57;;;33.60;30.30;;;;;;5046671;28;20171;-68
2024/03/18 12:28:32;;;;;;;2.30;2.10;;;32.60;31.50;;;;;;5052950;28;20427;-68
2024/03/18 12:30:59;;;;;;;5.43;2.67;;;31.10;31.00;;;;;;5053222;28;20893;-67
2024/03/18 12:33:25;;;;;;;3.90;2.70;;;29.90;32.30;;;;;;5051276;28;20492;-67
2024/03/18 12:35:51;;;;;;;2.77;2.57;;;28.80;33.60;;;;;;5052069;28;20502;-67
2024/03/18 12:38:17;;;;;;;2.50;2.27;;;28.00;35.00;;;;;;5053206;28;20428;-67
2024/03/18 12:40:44;;;;;;;3.47;2.07;;;27.90;36.30;;;;;;5052883;28;20403;-67